Time;durP1;ratioP1;P1;durP2;ratioP2;P2;SDS_P1;SDS_P2;PMS_P1;PMS_P2;Temp;Humidity;BMP_temperature;BMP_pressure;BME280_temperature;BME280_humidity;BME280_pressure;Samples;Min_cycle;Max_cycle;Signal;HPM_P1;HPM_P2
2024/02/02 00:01:54;;;;;;;20.33;11.68;;;;;;;;;;4974666;28;20034;-76
2024/02/02 00:04:20;;;;;;;22.58;13.85;;;;;;;;;;4978872;28;20087;-78
2024/02/02 00:06:49;;;;;;;20.95;13.00;;;;;;;;;;4975924;28;20026;-77
2024/02/02 00:09:16;;;;;;;21.25;12.43;;;;;;;;;;5000087;28;20037;-76
2024/02/02 00:11:44;;;;;;;19.50;12.13;;;;;;;;;;4993807;28;20167;-76
2024/02/02 00:14:11;;;;;;;18.45;10.93;;;;;;;;;;4993530;28;20588;-74
2024/02/02 00:16:38;;;;;;;16.95;10.73;;;;;;;;;;4977029;28;20066;-77
2024/02/02 00:19:06;;;;;;;23.77;12.85;;;;;;;;;;4961786;28;20037;-77
2024/02/02 00:21:33;;;;;;;21.92;12.65;;;;;;;;;;4988559;28;20124;-77
2024/02/02 00:24:01;;;;;;;19.00;12.07;;;;;;;;;;5008360;28;20046;-75
2024/02/02 00:26:28;;;;;;;20.33;12.55;;;;;;;;;;4991470;28;20038;-75
2024/02/02 00:28:57;;;;;;;19.48;12.10;;;;;;;;;;5016111;28;20025;-75
2024/02/02 00:31:24;;;;;;;20.08;12.15;;;;;;;;;;5012931;28;20338;-74
2024/02/02 00:33:51;;;;;;;21.02;13.25;;;;;;;;;;5013086;28;20052;-75
2024/02/02 00:36:20;;;;;;;22.20;14.10;;;;;;;;;;5016555;28;20025;-78
2024/02/02 00:38:47;;;;;;;21.30;13.70;;;;;;;;;;4993171;28;20021;-76
2024/02/02 00:41:13;;;;;;;22.38;14.35;;;;;;;;;;4993210;28;20260;-75
2024/02/02 00:43:39;;;;;;;22.70;13.70;;;;;;;;;;5012747;28;20037;-74
2024/02/02 00:46:06;;;;;;;24.05;13.48;;;;;;;;;;4993290;28;20041;-75
2024/02/02 00:48:34;;;;;;;21.52;13.55;;;;;;;;;;4977792;28;20037;-75
2024/02/02 00:51:01;;;;;;;21.42;13.88;;;;;;;;;;5014714;28;20038;-75
2024/02/02 00:53:27;;;;;;;21.83;14.45;;;;;;;;;;4994699;28;20033;-75
2024/02/02 00:55:55;;;;;;;25.30;14.98;;;;;;;;;;5016784;28;20029;-75
2024/02/02 00:58:23;;;;;;;25.25;17.45;;;;;;;;;;5015493;28;20037;-77
2024/02/02 01:00:49;;;;;;;23.80;15.77;;;;;;;;;;4996597;28;20025;-75
2024/02/02 01:03:17;;;;;;;22.48;15.30;;;;;;;;;;4996282;28;20044;-76
2024/02/02 01:05:43;;;;;;;20.10;14.93;;;;;;;;;;4994636;28;20091;-75
2024/02/02 01:08:12;;;;;;;21.08;14.30;;;;;;;;;;5016442;28;20071;-75
2024/02/02 01:10:39;;;;;;;24.15;14.20;;;;;;;;;;4992300;28;20788;-75
2024/02/02 01:13:05;;;;;;;21.70;14.15;;;;;;;;;;4995996;28;20128;-75
2024/02/02 01:15:32;;;;;;;25.40;14.10;;;;;;;;;;4991398;28;20037;-75
2024/02/02 01:17:59;;;;;;;22.95;14.32;;;;;;;;;;5014167;28;20139;-76
2024/02/02 01:20:26;;;;;;;23.63;14.15;;;;;;;;;;4994120;28;20029;-75
2024/02/02 01:22:53;;;;;;;24.05;14.52;;;;;;;;;;4992625;28;20073;-75
2024/02/02 01:25:21;;;;;;;21.52;14.55;;;;;;;;;;4995460;28;20026;-75
2024/02/02 01:27:48;;;;;;;23.80;15.45;;;;;;;;;;4990043;28;20071;-76
2024/02/02 01:30:14;;;;;;;23.42;14.40;;;;;;;;;;4992203;28;20063;-77
2024/02/02 01:32:40;;;;;;;20.60;14.15;;;;;;;;;;4990584;28;20037;-76
2024/02/02 01:35:07;;;;;;;21.77;13.93;;;;;;;;;;4991277;28;20033;-76
2024/02/02 01:37:34;;;;;;;19.70;12.65;;;;;;;;;;4987648;28;20168;-76
2024/02/02 01:40:01;;;;;;;20.60;12.38;;;;;;;;;;4991041;28;20034;-75
2024/02/02 01:42:29;;;;;;;19.60;10.93;;;;;;;;;;4993484;28;20106;-76
2024/02/02 01:45:04;;;;;;;18.30;10.63;;;;;;;;;;4991186;28;20094;-77
2024/02/02 01:47:32;;;;;;;;;;;;;;;;;;4991408;28;20079;-76
2024/02/02 01:50:00;;;;;;;15.13;8.90;;;;;;;;;;4993435;28;19920;-74
2024/02/02 01:52:28;;;;;;;16.08;7.88;;;;;;;;;;4989941;28;20030;-76
2024/02/02 01:54:57;;;;;;;16.85;8.48;;;;;;;;;;4994684;28;20088;-77
2024/02/02 01:57:24;;;;;;;15.77;7.78;;;;;;;;;;4989721;28;20029;-76
2024/02/02 01:59:51;;;;;;;13.90;7.72;;;;;;;;;;4991168;28;20072;-76
2024/02/02 02:02:19;;;;;;;16.15;7.80;;;;;;;;;;4992781;28;20105;-75
2024/02/02 02:04:55;;;;;;;13.90;6.13;;;;;;;;;;4992853;28;20033;-75
2024/02/02 02:07:27;;;;;;;15.10;7.10;;;;;;;;;;4989551;28;20683;-75
2024/02/02 02:09:53;;;;;;;13.80;6.68;;;;;;;;;;4991851;28;20052;-76
2024/02/02 02:12:19;;;;;;;16.65;6.25;;;;;;;;;;4990724;28;20037;-75
2024/02/02 02:14:46;;;;;;;14.10;6.25;;;;;;;;;;4989694;28;20044;-76
2024/02/02 02:17:12;;;;;;;13.98;6.93;;;;;;;;;;4992339;28;20485;-76
2024/02/02 02:19:39;;;;;;;16.38;6.57;;;;;;;;;;4993624;28;20034;-77
2024/02/02 02:22:08;;;;;;;13.15;6.53;;;;;;;;;;4992480;28;20592;-75
2024/02/02 02:24:35;;;;;;;12.23;5.60;;;;;;;;;;4989995;28;20077;-76
2024/02/02 02:27:03;;;;;;;13.80;6.10;;;;;;;;;;4994304;28;20033;-76
2024/02/02 02:29:31;;;;;;;15.00;6.00;;;;;;;;;;5007877;28;20025;-76
2024/02/02 02:31:59;;;;;;;17.27;6.60;;;;;;;;;;4992524;28;20033;-76
2024/02/02 02:34:26;;;;;;;13.30;6.50;;;;;;;;;;4974379;28;20638;-77
2024/02/02 02:36:53;;;;;;;14.48;6.45;;;;;;;;;;5011465;28;20535;-76
2024/02/02 02:39:19;;;;;;;13.95;5.97;;;;;;;;;;5011569;28;21029;-76
2024/02/02 02:41:46;;;;;;;13.40;6.20;;;;;;;;;;5006521;28;20021;-76
2024/02/02 02:44:14;;;;;;;;;;;;;;;;;;5013915;28;20033;-76
2024/02/02 02:46:42;;;;;;;13.82;7.35;;;;;;;;;;4990054;28;19917;-76
2024/02/02 02:49:09;;;;;;;16.02;7.85;;;;;;;;;;4976182;28;20103;-76
2024/02/02 02:51:38;;;;;;;15.98;7.38;;;;;;;;;;5004894;28;20095;-77
2024/02/02 02:54:04;;;;;;;16.48;8.15;;;;;;;;;;4992038;28;20607;-76
2024/02/02 02:56:30;;;;;;;16.98;7.80;;;;;;;;;;4988376;28;20843;-76
2024/02/02 02:58:58;;;;;;;16.20;7.55;;;;;;;;;;4993478;28;20041;-77
2024/02/02 03:01:26;;;;;;;14.23;7.35;;;;;;;;;;5006573;28;20034;-76
2024/02/02 03:03:52;;;;;;;17.17;8.10;;;;;;;;;;4995150;28;20033;-76
2024/02/02 03:06:20;;;;;;;15.35;8.00;;;;;;;;;;5009924;28;20038;-77
2024/02/02 03:08:46;;;;;;;16.00;7.75;;;;;;;;;;4990134;28;20642;-76
2024/02/02 03:11:13;;;;;;;17.10;8.27;;;;;;;;;;5011050;28;20726;-76
2024/02/02 03:13:40;;;;;;;15.32;7.95;;;;;;;;;;5006442;28;20029;-76
2024/02/02 03:16:08;;;;;;;16.10;8.50;;;;;;;;;;4994433;28;20875;-76
2024/02/02 03:18:34;;;;;;;16.60;8.68;;;;;;;;;;4992890;28;20048;-75
2024/02/02 03:21:02;;;;;;;20.95;10.02;;;;;;;;;;4996998;28;20013;-76
2024/02/02 03:23:28;;;;;;;19.00;9.27;;;;;;;;;;5001199;28;20050;-77
2024/02/02 03:25:57;;;;;;;17.42;10.20;;;;;;;;;;4997538;28;20661;-77
2024/02/02 03:28:23;;;;;;;16.45;9.95;;;;;;;;;;4992011;28;20046;-77
2024/02/02 03:30:49;;;;;;;16.83;9.27;;;;;;;;;;4992272;28;20042;-77
2024/02/02 03:33:15;;;;;;;18.30;8.98;;;;;;;;;;4988518;28;20529;-76
2024/02/02 03:35:43;;;;;;;16.17;9.10;;;;;;;;;;4991001;28;20029;-75
2024/02/02 03:38:11;;;;;;;15.85;8.52;;;;;;;;;;4998002;28;20202;-75
2024/02/02 03:40:39;;;;;;;15.75;9.13;;;;;;;;;;4994183;28;20022;-77
2024/02/02 03:43:05;;;;;;;17.15;8.88;;;;;;;;;;4991465;28;20044;-77
2024/02/02 03:45:33;;;;;;;18.65;10.18;;;;;;;;;;4991508;28;20879;-78
2024/02/02 03:48:00;;;;;;;18.05;9.95;;;;;;;;;;4996584;28;20010;-77
2024/02/02 03:50:27;;;;;;;18.83;10.70;;;;;;;;;;4992555;28;20044;-78
2024/02/02 03:52:55;;;;;;;18.40;11.18;;;;;;;;;;4994637;28;20021;-76
2024/02/02 03:55:25;;;;;;;22.65;11.85;;;;;;;;;;4993590;28;20046;-76
2024/02/02 03:57:53;;;;;;;20.00;11.23;;;;;;;;;;4996508;28;20098;-76
2024/02/02 04:00:20;;;;;;;18.58;11.32;;;;;;;;;;4993775;28;20048;-76
2024/02/02 04:02:48;;;;;;;20.27;10.85;;;;;;;;;;4991447;28;20765;-75
2024/02/02 04:05:23;;;;;;;21.15;12.77;;;;;;;;;;4991223;28;20129;-76
2024/02/02 04:07:49;;;;;;;19.35;12.60;;;;;;;;;;4993113;28;20041;-76
2024/02/02 04:10:15;;;;;;;21.02;11.90;;;;;;;;;;4990081;28;20120;-76
2024/02/02 04:12:41;;;;;;;;;;;;;;;;;;4989785;28;20029;-77
2024/02/02 04:15:09;;;;;;;18.05;11.20;;;;;;;;;;4994354;28;20019;-78
2024/02/02 04:17:37;;;;;;;18.92;11.35;;;;;;;;;;4990718;28;20114;-75
2024/02/02 04:20:06;;;;;;;18.00;10.95;;;;;;;;;;4993676;28;20033;-76
2024/02/02 04:22:32;;;;;;;18.33;11.50;;;;;;;;;;4993085;28;20662;-76
2024/02/02 04:25:01;;;;;;;16.95;10.98;;;;;;;;;;4999461;28;20033;-77
2024/02/02 04:27:28;;;;;;;18.95;11.43;;;;;;;;;;4987271;28;20044;-75
2024/02/02 04:29:56;;;;;;;17.70;11.00;;;;;;;;;;4994481;28;20036;-76
2024/02/02 04:32:23;;;;;;;17.63;11.35;;;;;;;;;;4994999;28;20048;-77
2024/02/02 04:34:49;;;;;;;20.33;11.50;;;;;;;;;;4990641;28;20133;-76
2024/02/02 04:37:15;;;;;;;19.00;11.82;;;;;;;;;;4994009;28;20029;-76
2024/02/02 04:39:41;;;;;;;19.10;12.00;;;;;;;;;;4988301;28;20584;-76
2024/02/02 04:42:08;;;;;;;20.60;11.45;;;;;;;;;;4994381;28;20033;-76
2024/02/02 04:44:35;;;;;;;19.13;11.75;;;;;;;;;;4991215;28;20406;-76
2024/02/02 04:47:03;;;;;;;22.30;12.20;;;;;;;;;;4996250;28;20611;-76
2024/02/02 04:49:30;;;;;;;19.33;11.55;;;;;;;;;;4989910;28;20044;-76
2024/02/02 04:51:56;;;;;;;19.75;12.10;;;;;;;;;;4991324;28;20038;-76
2024/02/02 04:54:25;;;;;;;20.73;13.48;;;;;;;;;;4992943;28;20034;-76
2024/02/02 04:56:51;;;;;;;20.58;13.27;;;;;;;;;;4994315;28;20045;-75
2024/02/02 04:59:19;;;;;;;20.70;12.20;;;;;;;;;;4990363;28;20148;-76
2024/02/02 05:01:46;;;;;;;19.85;11.95;;;;;;;;;;4991650;28;20113;-76
2024/02/02 05:04:13;;;;;;;20.92;12.27;;;;;;;;;;4994379;28;20033;-76
2024/02/02 05:06:39;;;;;;;18.88;11.68;;;;;;;;;;4991212;28;20037;-76
2024/02/02 05:09:05;;;;;;;18.65;12.50;;;;;;;;;;4989512;28;20038;-76
2024/02/02 05:11:32;;;;;;;18.15;11.30;;;;;;;;;;4990018;28;20077;-76
2024/02/02 05:13:59;;;;;;;18.35;11.65;;;;;;;;;;4991864;28;20112;-77
2024/02/02 05:16:25;;;;;;;22.33;12.25;;;;;;;;;;4992938;28;20037;-76
2024/02/02 05:18:56;;;;;;;20.83;12.10;;;;;;;;;;4992083;28;20565;-75
2024/02/02 05:21:23;;;;;;;20.13;12.02;;;;;;;;;;4993523;28;20029;-75
2024/02/02 05:23:49;;;;;;;22.77;12.52;;;;;;;;;;4990486;28;20077;-75
2024/02/02 05:26:17;;;;;;;20.67;12.70;;;;;;;;;;4993373;28;20768;-77
2024/02/02 05:28:45;;;;;;;20.77;12.55;;;;;;;;;;4988128;28;20199;-75
2024/02/02 05:31:11;;;;;;;18.42;11.98;;;;;;;;;;4990223;28;20516;-75
2024/02/02 05:33:38;;;;;;;20.63;12.35;;;;;;;;;;4986272;28;20034;-76
2024/02/02 05:36:06;;;;;;;21.83;13.00;;;;;;;;;;4990660;28;20025;-76
2024/02/02 05:38:33;;;;;;;20.02;11.90;;;;;;;;;;4986152;28;20026;-75
2024/02/02 05:41:01;;;;;;;21.15;12.52;;;;;;;;;;4992036;28;20052;-75
2024/02/02 05:43:27;;;;;;;19.70;12.85;;;;;;;;;;4987595;28;21258;-75
2024/02/02 05:45:54;;;;;;;21.42;13.60;;;;;;;;;;4994507;28;20040;-77
2024/02/02 05:48:22;;;;;;;20.27;12.77;;;;;;;;;;4995553;28;20025;-77
2024/02/02 05:50:49;;;;;;;23.63;13.95;;;;;;;;;;4986345;28;20608;-77
2024/02/02 05:53:16;;;;;;;21.90;13.13;;;;;;;;;;4991286;28;20059;-77
2024/02/02 05:55:43;;;;;;;23.45;13.30;;;;;;;;;;4991271;28;20080;-76
2024/02/02 05:58:09;;;;;;;21.45;13.43;;;;;;;;;;4992698;28;20029;-77
2024/02/02 06:00:36;;;;;;;20.45;14.05;;;;;;;;;;4985840;28;20048;-77
2024/02/02 06:03:02;;;;;;;22.75;13.35;;;;;;;;;;4994223;28;20025;-77
2024/02/02 06:05:32;;;;;;;18.73;13.05;;;;;;;;;;4988086;28;20026;-75
2024/02/02 06:08:03;;;;;;;23.45;13.70;;;;;;;;;;4993176;28;20022;-76
2024/02/02 06:10:30;;;;;;;23.13;12.93;;;;;;;;;;4988218;28;20033;-75
2024/02/02 06:12:58;;;;;;;24.90;13.68;;;;;;;;;;4992538;28;20025;-77
2024/02/02 06:15:24;;;;;;;21.88;13.63;;;;;;;;;;4986375;28;20056;-77
2024/02/02 06:17:51;;;;;;;18.55;12.00;;;;;;;;;;4988710;28;20025;-75
2024/02/02 06:20:18;;;;;;;19.25;11.80;;;;;;;;;;4987044;28;20034;-76
2024/02/02 06:22:45;;;;;;;23.15;12.32;;;;;;;;;;4987264;28;20076;-75
2024/02/02 06:25:11;;;;;;;19.10;11.48;;;;;;;;;;4990064;28;20026;-75
2024/02/02 06:27:38;;;;;;;19.98;11.18;;;;;;;;;;4972247;28;20026;-76
2024/02/02 06:30:07;;;;;;;19.42;11.30;;;;;;;;;;5005345;28;20057;-75
2024/02/02 06:32:45;;;;;;;20.10;10.88;;;;;;;;;;4983522;28;20026;-78
2024/02/02 06:35:15;;;;;;;18.08;11.13;;;;;;;;;;4986715;28;20046;-76
2024/02/02 06:37:41;;;;;;;20.02;11.25;;;;;;;;;;4970502;28;20044;-76
2024/02/02 06:40:08;;;;;;;20.17;10.80;;;;;;;;;;4989025;28;20652;-76
2024/02/02 06:42:34;;;;;;;;;;;;;;;;;;4988383;28;20036;-78
2024/02/02 06:45:00;;;;;;;18.40;9.98;;;;;;;;;;4991076;28;20032;-76
2024/02/02 06:47:26;;;;;;;15.38;9.35;;;;;;;;;;4985728;28;20038;-75
2024/02/02 06:49:53;;;;;;;20.40;10.07;;;;;;;;;;4991358;28;20032;-75
2024/02/02 06:52:21;;;;;;;17.15;9.48;;;;;;;;;;4991570;28;20037;-74
2024/02/02 06:54:48;;;;;;;17.00;9.95;;;;;;;;;;4994965;28;20029;-75
2024/02/02 06:57:16;;;;;;;19.88;10.05;;;;;;;;;;4994966;28;20057;-75
2024/02/02 06:59:46;;;;;;;18.42;9.90;;;;;;;;;;4988776;28;20927;-76
2024/02/02 07:02:32;;;;;;;18.90;9.50;;;;;;;;;;4990616;28;20092;-77
2024/02/02 07:04:59;;;;;;;18.42;9.32;;;;;;;;;;4987513;28;20080;-76
2024/02/02 07:07:25;;;;;;;;;;;;;;;;;;4990708;28;20038;-75
2024/02/02 07:09:52;;;;;;;18.95;10.88;;;;;;;;;;4996689;28;19951;-75
2024/02/02 07:12:38;;;;;;;19.17;11.75;;;;;;;;;;4993674;28;20076;-75
2024/02/02 07:15:06;;;;;;;20.80;13.32;;;;;;;;;;4981256;28;20125;-77
2024/02/02 07:17:42;;;;;;;22.08;12.90;;;;;;;;;;4991240;28;20504;-75
2024/02/02 07:20:10;;;;;;;20.15;12.18;;;;;;;;;;4993499;28;20044;-75
2024/02/02 07:22:38;;;;;;;24.45;17.27;;;;;;;;;;4992283;28;20712;-76
2024/02/02 07:25:06;;;;;;;26.95;17.33;;;;;;;;;;5018043;28;20045;-75
2024/02/02 07:27:51;;;;;;;22.20;13.05;;;;;;;;;;5014460;28;20100;-75
2024/02/02 07:30:36;;;;;;;19.13;11.38;;;;;;;;;;4996510;28;20080;-75
2024/02/02 07:33:19;;;;;;;20.55;11.35;;;;;;;;;;4993673;28;20021;-76
2024/02/02 07:35:45;;;;;;;20.60;11.55;;;;;;;;;;4991743;28;20079;-76
2024/02/02 07:38:24;;;;;;;20.80;11.35;;;;;;;;;;5018840;28;20044;-76
2024/02/02 07:41:06;;;;;;;20.27;10.20;;;;;;;;;;5016234;28;20029;-76
2024/02/02 07:43:33;;;;;;;19.60;9.90;;;;;;;;;;4997758;28;20048;-75
2024/02/02 07:46:06;;;;;;;19.33;9.45;;;;;;;;;;5000513;28;20033;-76
2024/02/02 07:48:33;;;;;;;19.67;8.98;;;;;;;;;;4995437;28;20037;-75
2024/02/02 07:51:01;;;;;;;18.05;8.90;;;;;;;;;;5013458;28;20025;-77
2024/02/02 07:53:28;;;;;;;17.30;8.18;;;;;;;;;;4980953;28;20042;-77
2024/02/02 07:55:54;;;;;;;;;;;;;;;;;;5019481;28;20064;-77
2024/02/02 07:58:23;;;;;;;14.43;7.03;;;;;;;;;;4997420;28;21237;-77
2024/02/02 08:00:52;;;;;;;15.27;7.32;;;;;;;;;;5021364;28;20021;-77
2024/02/02 08:03:18;;;;;;;17.15;7.45;;;;;;;;;;5016968;28;20033;-77
2024/02/02 08:05:48;;;;;;;15.77;6.40;;;;;;;;;;5017225;28;20055;-77
2024/02/02 08:08:16;;;;;;;15.65;7.00;;;;;;;;;;5003405;28;20501;-76
2024/02/02 08:10:43;;;;;;;13.25;5.82;;;;;;;;;;5017017;28;20804;-77
2024/02/02 08:13:10;;;;;;;16.63;6.82;;;;;;;;;;5017596;28;20040;-77
2024/02/02 08:15:38;;;;;;;13.15;5.93;;;;;;;;;;5015497;28;20025;-77
2024/02/02 08:18:07;;;;;;;12.70;5.40;;;;;;;;;;4997616;28;20863;-77
2024/02/02 08:20:34;;;;;;;11.18;5.18;;;;;;;;;;4995141;28;20657;-77
2024/02/02 08:23:02;;;;;;;13.00;5.22;;;;;;;;;;4994990;28;20060;-77
2024/02/02 08:25:30;;;;;;;12.25;5.18;;;;;;;;;;5012461;28;20394;-78
2024/02/02 08:27:57;;;;;;;14.30;5.47;;;;;;;;;;4980491;28;20041;-77
2024/02/02 08:30:24;;;;;;;17.35;4.97;;;;;;;;;;5012139;28;20120;-77
2024/02/02 08:32:53;;;;;;;;;;;;;;;;;;4999030;28;20030;-78
2024/02/02 08:35:21;;;;;;;16.15;5.43;;;;;;;;;;4994986;28;20078;-76
2024/02/02 08:37:59;;;;;;;11.10;4.57;;;;;;;;;;4973042;28;20931;-76
2024/02/02 08:40:30;;;;;;;12.20;4.68;;;;;;;;;;4994349;28;20025;-75
2024/02/02 08:42:56;;;;;;;11.50;4.90;;;;;;;;;;4994133;28;20040;-77
2024/02/02 08:45:23;;;;;;;;;;;;;;;;;;4997540;28;20564;-76
2024/02/02 08:47:51;;;;;;;12.80;5.03;;;;;;;;;;5015591;28;19944;-76
2024/02/02 08:50:21;;;;;;;15.25;4.80;;;;;;;;;;5009455;28;20072;-76
2024/02/02 08:52:54;;;;;;;16.08;5.57;;;;;;;;;;5011417;28;20104;-76
2024/02/02 08:55:39;;;;;;;13.77;5.60;;;;;;;;;;5011427;28;20091;-76
2024/02/02 08:58:05;;;;;;;18.05;4.95;;;;;;;;;;5014606;28;20022;-75
2024/02/02 09:00:31;;;;;;;;;;;;;;;;;;4992701;28;20040;-75
2024/02/02 09:03:18;;;;;;;14.38;4.70;;;;;;;;;;5014619;28;20082;-76
2024/02/02 09:06:07;;;;;;;13.30;4.22;;;;;;;;;;5012985;28;20091;-76
2024/02/02 09:08:42;;;;;;;11.52;3.95;;;;;;;;;;5010927;28;20052;-78
2024/02/02 09:11:24;;;;;;;12.43;3.70;;;;;;;;;;5001507;28;20104;-77
2024/02/02 09:14:01;;;;;;;12.48;3.92;;;;;;;;;;5012302;28;20039;-76
2024/02/02 09:16:39;;;;;;;12.57;4.55;;;;;;;;;;5011295;28;20026;-76
2024/02/02 09:19:14;;;;;;;12.15;3.80;;;;;;;;;;5012399;28;20659;-75
2024/02/02 09:21:41;;;;;;;16.85;5.18;;;;;;;;;;5013922;28;20029;-76
2024/02/02 09:24:12;;;;;;;14.98;6.07;;;;;;;;;;5011374;28;20068;-75
2024/02/02 09:26:42;;;;;;;15.48;6.63;;;;;;;;;;5009450;28;20036;-75
2024/02/02 09:29:10;;;;;;;14.98;5.28;;;;;;;;;;4998255;28;20144;-76
2024/02/02 09:31:37;;;;;;;12.52;4.20;;;;;;;;;;5011218;28;20055;-75
2024/02/02 09:34:08;;;;;;;14.55;3.65;;;;;;;;;;5014888;28;20039;-75
2024/02/02 09:36:34;;;;;;;11.68;3.28;;;;;;;;;;4982618;28;20092;-75
2024/02/02 09:39:05;;;;;;;13.07;2.90;;;;;;;;;;4999476;28;20496;-76
2024/02/02 09:41:39;;;;;;;23.70;3.55;;;;;;;;;;4995831;28;20025;-76
2024/02/02 09:44:14;;;;;;;14.00;2.97;;;;;;;;;;4993844;28;20041;-76
2024/02/02 09:46:50;;;;;;;13.90;3.17;;;;;;;;;;4992099;28;20029;-76
2024/02/02 09:49:31;;;;;;;10.35;2.60;;;;;;;;;;5000149;28;20048;-76
2024/02/02 09:52:22;;;;;;;14.65;3.60;;;;;;;;;;4997035;28;20523;-76
2024/02/02 09:55:09;;;;;;;12.38;2.70;;;;;;;;;;4985352;28;20033;-76
2024/02/02 09:57:45;;;;;;;13.48;3.72;;;;;;;;;;4985904;28;20033;-76
2024/02/02 10:00:20;;;;;;;12.77;3.17;;;;;;;;;;5016685;28;20034;-76
2024/02/02 10:03:07;;;;;;;11.40;3.47;;;;;;;;;;5014447;28;20030;-75
2024/02/02 10:05:46;;;;;;;10.70;2.85;;;;;;;;;;5013833;28;20136;-76
2024/02/02 10:08:12;;;;;;;;;;;;;;;;;;5014170;28;20036;-76
2024/02/02 10:10:57;;;;;;;13.15;2.85;;;;;;;;;;4993182;28;19917;-76
2024/02/02 10:13:31;;;;;;;14.82;2.50;;;;;;;;;;4992797;28;20579;-76
2024/02/02 10:16:10;;;;;;;10.02;2.40;;;;;;;;;;4999831;28;20020;-76
2024/02/02 10:19:02;;;;;;;11.32;2.33;;;;;;;;;;4995049;28;20029;-76
2024/02/02 10:21:47;;;;;;;14.32;2.60;;;;;;;;;;4996292;28;20037;-75
2024/02/02 10:24:33;;;;;;;10.65;2.25;;;;;;;;;;5015999;28;20595;-76
2024/02/02 10:27:17;;;;;;;10.82;2.72;;;;;;;;;;4999521;28;20042;-75
2024/02/02 10:30:05;;;;;;;10.80;2.30;;;;;;;;;;4993005;28;20171;-75
2024/02/02 10:32:31;;;;;;;8.32;1.98;;;;;;;;;;5010555;28;20029;-76
2024/02/02 10:35:08;;;;;;;11.75;2.80;;;;;;;;;;4996272;28;20530;-75
2024/02/02 10:37:36;;;;;;;11.57;2.75;;;;;;;;;;5011935;28;20115;-75
2024/02/02 10:40:10;;;;;;;12.57;2.60;;;;;;;;;;5015638;28;20026;-76
2024/02/02 10:42:44;;;;;;;12.45;2.50;;;;;;;;;;4989762;28;20405;-75
2024/02/02 10:45:32;;;;;;;8.50;2.17;;;;;;;;;;5013758;28;20543;-76
2024/02/02 10:48:04;;;;;;;9.75;2.10;;;;;;;;;;5013427;28;20068;-76
2024/02/02 10:50:37;;;;;;;10.90;2.33;;;;;;;;;;4998352;28;20099;-76
2024/02/02 10:53:22;;;;;;;12.82;2.30;;;;;;;;;;5014997;28;20484;-75
2024/02/02 10:55:57;;;;;;;11.63;2.40;;;;;;;;;;4997724;28;20098;-75
2024/02/02 10:58:24;;;;;;;11.95;2.20;;;;;;;;;;5010208;28;20057;-76
2024/02/02 11:01:11;;;;;;;12.23;2.65;;;;;;;;;;4999280;28;20038;-76
2024/02/02 11:03:48;;;;;;;12.57;2.70;;;;;;;;;;5016908;28;20048;-76
2024/02/02 11:06:17;;;;;;;16.23;2.60;;;;;;;;;;4994863;28;20147;-76
2024/02/02 11:08:47;;;;;;;9.65;2.50;;;;;;;;;;5013003;28;22754;-76
2024/02/02 11:11:21;;;;;;;10.32;2.80;;;;;;;;;;5012089;28;20034;-75
2024/02/02 11:14:09;;;;;;;11.60;2.88;;;;;;;;;;5014121;28;20032;-75
2024/02/02 11:16:47;;;;;;;11.52;3.05;;;;;;;;;;4993954;28;20046;-76
2024/02/02 11:19:16;;;;;;;13.18;3.03;;;;;;;;;;5015264;28;20117;-76
2024/02/02 11:21:54;;;;;;;12.35;3.15;;;;;;;;;;4995434;28;20048;-76
2024/02/02 11:24:26;;;;;;;9.57;2.60;;;;;;;;;;4998174;28;20095;-76
2024/02/02 11:27:11;;;;;;;10.77;3.00;;;;;;;;;;5014378;28;20038;-77
2024/02/02 11:29:40;;;;;;;10.32;2.65;;;;;;;;;;4997972;28;20036;-76
2024/02/02 11:32:25;;;;;;;11.30;3.08;;;;;;;;;;5016261;28;20028;-76
2024/02/02 11:35:02;;;;;;;11.02;3.03;;;;;;;;;;5020236;28;20031;-76
2024/02/02 11:37:47;;;;;;;11.57;3.13;;;;;;;;;;5008857;28;20029;-76
2024/02/02 11:40:14;;;;;;;10.23;2.60;;;;;;;;;;5010629;28;20025;-76
2024/02/02 11:42:44;;;;;;;11.20;3.70;;;;;;;;;;5013206;28;20033;-76
2024/02/02 11:45:12;;;;;;;14.93;4.80;;;;;;;;;;5018553;28;20631;-76
2024/02/02 11:47:43;;;;;;;13.07;3.85;;;;;;;;;;4998470;28;20080;-77
2024/02/02 11:50:13;;;;;;;13.88;3.22;;;;;;;;;;5017270;28;20038;-76
2024/02/02 11:52:48;;;;;;;8.52;2.90;;;;;;;;;;4994591;28;20493;-75
2024/02/02 11:55:25;;;;;;;13.63;3.17;;;;;;;;;;4994372;28;20556;-76
2024/02/02 11:58:01;;;;;;;10.57;3.17;;;;;;;;;;5019355;28;20075;-76
2024/02/02 12:00:50;;;;;;;10.60;3.30;;;;;;;;;;4989739;28;20446;-77
2024/02/02 12:03:23;;;;;;;13.18;2.83;;;;;;;;;;4974672;28;20041;-76
2024/02/02 12:06:01;;;;;;;13.65;2.95;;;;;;;;;;5018613;28;20091;-77
2024/02/02 12:08:33;;;;;;;10.65;2.67;;;;;;;;;;5016639;28;20817;-77
2024/02/02 12:10:59;;;;;;;12.32;3.70;;;;;;;;;;5000642;28;20056;-77
2024/02/02 12:13:31;;;;;;;12.30;3.20;;;;;;;;;;4996949;28;20655;-77
2024/02/02 12:15:57;;;;;;;10.07;3.00;;;;;;;;;;4984651;28;20048;-77
2024/02/02 12:18:26;;;;;;;9.23;2.88;;;;;;;;;;5013257;28;20029;-77
2024/02/02 12:20:53;;;;;;;9.55;2.97;;;;;;;;;;5014910;28;20053;-76
2024/02/02 12:23:20;;;;;;;11.25;3.10;;;;;;;;;;4993627;28;20081;-76
2024/02/02 12:25:48;;;;;;;10.43;4.03;;;;;;;;;;4995285;28;20030;-78
2024/02/02 12:28:15;;;;;;;11.77;3.38;;;;;;;;;;4993988;28;20030;-77
2024/02/02 12:30:42;;;;;;;10.05;3.20;;;;;;;;;;4990823;28;20030;-76
2024/02/02 12:33:09;;;;;;;10.32;3.25;;;;;;;;;;4994892;28;20557;-77
2024/02/02 12:35:37;;;;;;;12.15;3.17;;;;;;;;;;4974206;28;20038;-77
2024/02/02 12:38:06;;;;;;;10.93;2.88;;;;;;;;;;4975829;28;20465;-75
2024/02/02 12:40:33;;;;;;;11.57;3.45;;;;;;;;;;4992336;28;20156;-76
2024/02/02 12:43:02;;;;;;;12.43;3.45;;;;;;;;;;4979314;28;20028;-76
2024/02/02 12:45:31;;;;;;;9.88;3.40;;;;;;;;;;4992846;28;20030;-76
2024/02/02 12:48:00;;;;;;;10.57;2.88;;;;;;;;;;4995869;28;20033;-75
2024/02/02 12:50:28;;;;;;;9.80;3.15;;;;;;;;;;4993436;28;20497;-74
2024/02/02 12:52:56;;;;;;;11.90;3.45;;;;;;;;;;4977451;28;20063;-76
2024/02/02 12:55:22;;;;;;;10.52;3.42;;;;;;;;;;4993891;28;20045;-76
2024/02/02 12:57:50;;;;;;;8.52;3.05;;;;;;;;;;4996986;28;20064;-76
2024/02/02 13:00:21;;;;;;;10.80;3.30;;;;;;;;;;4997536;28;20287;-76
2024/02/02 13:02:49;;;;;;;12.20;3.65;;;;;;;;;;4978731;28;20091;-76
2024/02/02 13:05:18;;;;;;;11.95;3.45;;;;;;;;;;4997466;28;20037;-76
2024/02/02 13:07:50;;;;;;;9.65;3.22;;;;;;;;;;4990319;28;20026;-76
2024/02/02 13:10:34;;;;;;;10.20;3.65;;;;;;;;;;4994171;28;20045;-74
2024/02/02 13:13:12;;;;;;;12.10;3.72;;;;;;;;;;4980044;28;20191;-75
2024/02/02 13:15:40;;;;;;;13.02;3.85;;;;;;;;;;4974894;28;20304;-77
2024/02/02 13:18:25;;;;;;;11.80;4.55;;;;;;;;;;4996320;28;20091;-76
2024/02/02 13:20:53;;;;;;;10.73;3.80;;;;;;;;;;4996129;28;20029;-77
2024/02/02 13:23:23;;;;;;;13.77;4.05;;;;;;;;;;4998575;28;20128;-75
2024/02/02 13:26:03;;;;;;;12.20;3.83;;;;;;;;;;5012681;28;20056;-76
2024/02/02 13:28:43;;;;;;;11.77;3.78;;;;;;;;;;5009460;28;20037;-75
2024/02/02 13:31:18;;;;;;;9.70;3.80;;;;;;;;;;5013716;28;20028;-74
2024/02/02 13:33:54;;;;;;;10.73;3.70;;;;;;;;;;5009647;28;20148;-75
2024/02/02 13:36:23;;;;;;;10.82;3.53;;;;;;;;;;5009761;28;20029;-75
2024/02/02 13:38:59;;;;;;;12.65;2.88;;;;;;;;;;4998009;28;20033;-76
2024/02/02 13:41:33;;;;;;;13.98;3.85;;;;;;;;;;5009920;28;20116;-75
2024/02/02 13:44:11;;;;;;;11.27;3.67;;;;;;;;;;5009776;28;20037;-75
2024/02/02 13:46:48;;;;;;;9.48;3.28;;;;;;;;;;4991826;28;20041;-75
2024/02/02 13:49:28;;;;;;;11.70;3.55;;;;;;;;;;4992694;28;20044;-76
2024/02/02 13:51:56;;;;;;;11.20;3.40;;;;;;;;;;5015936;28;20124;-76
2024/02/02 13:54:23;;;;;;;11.55;3.50;;;;;;;;;;5004613;28;20512;-77
2024/02/02 13:57:00;;;;;;;12.73;3.70;;;;;;;;;;5000801;28;20097;-76
2024/02/02 13:59:37;;;;;;;13.20;3.70;;;;;;;;;;5008537;28;20033;-76
2024/02/02 14:02:09;;;;;;;11.48;4.13;;;;;;;;;;4999267;28;20087;-77
2024/02/02 14:04:42;;;;;;;10.27;3.20;;;;;;;;;;4996686;28;20028;-75
2024/02/02 14:07:15;;;;;;;11.15;3.05;;;;;;;;;;5015025;28;20034;-77
2024/02/02 14:09:42;;;;;;;11.32;3.33;;;;;;;;;;5003160;28;20088;-76
2024/02/02 14:12:15;;;;;;;11.98;3.35;;;;;;;;;;5021970;28;20148;-78
2024/02/02 14:14:52;;;;;;;12.38;3.88;;;;;;;;;;5004474;28;20039;-78
2024/02/02 14:17:20;;;;;;;11.85;4.20;;;;;;;;;;5011567;28;20052;-75
2024/02/02 14:19:48;;;;;;;11.00;4.05;;;;;;;;;;5009886;28;20032;-77
2024/02/02 14:22:16;;;;;;;9.82;3.95;;;;;;;;;;5010788;28;20063;-77
2024/02/02 14:24:51;;;;;;;10.57;4.00;;;;;;;;;;4990237;28;20053;-76
2024/02/02 14:27:18;;;;;;;11.07;5.28;;;;;;;;;;5005918;28;20614;-75
2024/02/02 14:29:45;;;;;;;13.65;5.32;;;;;;;;;;5004396;28;20587;-76
2024/02/02 14:32:13;;;;;;;13.82;4.22;;;;;;;;;;4992266;28;20057;-76
2024/02/02 14:34:39;;;;;;;13.23;4.75;;;;;;;;;;5005928;28;20049;-78
2024/02/02 14:37:08;;;;;;;10.73;4.35;;;;;;;;;;5008149;28;20025;-77
2024/02/02 14:39:35;;;;;;;11.80;4.90;;;;;;;;;;5007060;28;20084;-76
2024/02/02 14:42:04;;;;;;;13.88;4.88;;;;;;;;;;4986697;28;20114;-76
2024/02/02 14:44:31;;;;;;;13.30;5.60;;;;;;;;;;4986808;28;20045;-75
2024/02/02 14:46:59;;;;;;;12.70;5.57;;;;;;;;;;5009640;28;20033;-75